Time;durP1;ratioP1;P1;durP2;ratioP2;P2;SDS_P1;SDS_P2;PMS_P1;PMS_P2;Temp;Humidity;BMP_temperature;BMP_pressure;BME280_temperature;BME280_humidity;BME280_pressure;Samples;Min_cycle;Max_cycle;Signal;HPM_P1;HPM_P2
2021/08/16 00:01:57;;;;;;;2.38;1.00;;;25.10;48.40;;;;;;5056568;28;20114;-53
2021/08/16 00:04:23;;;;;;;2.83;1.00;;;25.10;48.40;;;;;;5056711;28;20037;-55
2021/08/16 00:06:49;;;;;;;1.95;1.02;;;25.10;48.40;;;;;;5056932;28;20029;-54
2021/08/16 00:09:15;;;;;;;1.65;0.90;;;25.10;48.50;;;;;;5056928;28;20602;-52
2021/08/16 00:11:40;;;;;;;1.95;1.10;;;25.10;48.50;;;;;;5056631;28;20053;-54
2021/08/16 00:14:06;;;;;;;2.05;0.90;;;25.10;48.40;;;;;;5056782;28;20056;-51
2021/08/16 00:16:33;;;;;;;2.40;0.98;;;25.00;49.00;;;;;;5056378;28;20448;-52
2021/08/16 00:19:00;;;;;;;1.90;1.00;;;25.00;48.40;;;;;;5056603;28;20039;-52
2021/08/16 00:21:25;;;;;;;2.53;0.82;;;25.00;48.40;;;;;;5056118;28;20017;-49
2021/08/16 00:23:51;;;;;;;2.28;0.93;;;25.00;48.40;;;;;;5056374;28;20360;-47
2021/08/16 00:26:17;;;;;;;2.22;0.95;;;25.00;48.40;;;;;;5056043;28;20033;-54
2021/08/16 00:28:43;;;;;;;3.05;1.10;;;25.00;48.40;;;;;;5056075;28;20916;-56
2021/08/16 00:31:08;;;;;;;2.80;0.95;;;25.00;48.40;;;;;;5055304;28;20090;-56
2021/08/16 00:33:34;;;;;;;2.47;1.10;;;25.00;48.40;;;;;;5056889;28;20029;-53
2021/08/16 00:36:01;;;;;;;2.25;0.70;;;25.00;49.00;;;;;;5056450;28;20093;-56
2021/08/16 00:38:27;;;;;;;3.70;1.00;;;25.00;48.40;;;;;;5055971;28;20374;-52
2021/08/16 00:40:54;;;;;;;2.38;1.02;;;25.00;48.40;;;;;;5056421;28;20071;-53
2021/08/16 00:43:19;;;;;;;1.42;0.77;;;25.00;48.40;;;;;;5055884;28;20056;-50
2021/08/16 00:45:46;;;;;;;2.10;0.90;;;25.00;48.50;;;;;;5055695;28;20377;-53
2021/08/16 00:48:12;;;;;;;2.15;0.80;;;25.00;48.60;;;;;;5055492;28;20057;-50
2021/08/16 00:50:38;;;;;;;3.72;0.90;;;25.00;48.60;;;;;;5055833;28;20356;-49
2021/08/16 00:53:04;;;;;;;1.98;0.75;;;24.90;48.50;;;;;;5056288;28;20033;-48
2021/08/16 00:55:31;;;;;;;1.95;1.08;;;25.00;48.60;;;;;;5054509;28;20432;-50
2021/08/16 00:58:00;;;;;;;2.88;0.90;;;25.00;48.60;;;;;;5055482;28;20043;-48
2021/08/16 01:00:26;;;;;;;2.63;1.35;;;25.00;48.50;;;;;;5054313;28;20440;-47
2021/08/16 01:02:52;;;;;;;1.98;1.10;;;25.00;48.60;;;;;;5055836;28;20415;-51
2021/08/16 01:05:18;;;;;;;2.88;1.17;;;25.00;48.60;;;;;;5055460;28;20499;-51
2021/08/16 01:07:46;;;;;;;2.97;0.95;;;24.90;48.50;;;;;;5055210;28;20056;-48
2021/08/16 01:10:16;;;;;;;1.90;0.93;;;24.90;48.50;;;;;;5055685;28;20033;-51
2021/08/16 01:12:42;;;;;;;2.28;1.00;;;24.90;48.60;;;;;;5055663;28;20033;-54
2021/08/16 01:15:11;;;;;;;2.40;1.02;;;24.90;48.60;;;;;;5055436;28;20111;-50
2021/08/16 01:17:38;;;;;;;2.28;0.88;;;24.90;48.60;;;;;;5054153;28;20491;-49
2021/08/16 01:20:07;;;;;;;2.50;1.25;;;24.90;48.60;;;;;;5055451;28;20025;-50
2021/08/16 01:22:34;;;;;;;2.42;0.95;;;24.90;48.60;;;;;;5054971;28;20078;-49
2021/08/16 01:25:01;;;;;;;3.90;1.02;;;24.90;48.70;;;;;;5054851;28;20037;-49
2021/08/16 01:27:27;;;;;;;3.70;1.40;;;24.90;48.70;;;;;;5055007;28;20155;-51
2021/08/16 01:29:53;;;;;;;2.95;1.25;;;24.90;48.70;;;;;;5055081;28;20476;-47
2021/08/16 01:32:18;;;;;;;3.03;1.13;;;24.90;48.80;;;;;;5055016;28;20059;-50
2021/08/16 01:34:44;;;;;;;2.55;1.00;;;24.90;48.80;;;;;;5054318;28;20025;-51
2021/08/16 01:37:10;;;;;;;2.15;0.80;;;24.80;48.80;;;;;;5055362;28;20029;-46
2021/08/16 01:39:36;;;;;;;3.78;1.40;;;24.90;48.80;;;;;;5054620;28;20027;-52
2021/08/16 01:42:02;;;;;;;3.00;1.30;;;24.80;48.80;;;;;;5055247;28;20309;-48
2021/08/16 01:44:28;;;;;;;3.42;1.30;;;24.80;48.80;;;;;;5054550;28;20044;-50
2021/08/16 01:46:53;;;;;;;2.92;1.15;;;24.80;48.80;;;;;;5055161;28;20048;-46
2021/08/16 01:49:19;;;;;;;3.92;1.30;;;24.80;48.80;;;;;;5054350;28;20111;-50
2021/08/16 01:51:47;;;;;;;2.35;1.10;;;24.80;48.90;;;;;;5054641;28;20033;-48
2021/08/16 01:54:14;;;;;;;2.90;1.02;;;24.80;48.90;;;;;;5054330;28;20102;-46
2021/08/16 01:56:40;;;;;;;3.78;1.10;;;24.80;48.90;;;;;;5054812;28;20025;-52
2021/08/16 01:59:06;;;;;;;3.53;1.27;;;24.80;48.90;;;;;;5054500;28;20029;-49
2021/08/16 02:01:32;;;;;;;3.05;1.20;;;24.80;48.90;;;;;;5054371;28;20040;-50
2021/08/16 02:03:58;;;;;;;1.77;0.90;;;24.80;48.90;;;;;;5055053;28;20049;-48
2021/08/16 02:06:24;;;;;;;2.85;1.10;;;24.80;48.90;;;;;;5054409;28;20100;-48
2021/08/16 02:08:50;;;;;;;3.15;1.20;;;24.80;48.90;;;;;;5054981;28;20135;-51
2021/08/16 02:11:16;;;;;;;2.83;1.10;;;24.80;48.90;;;;;;5053984;28;20424;-49
2021/08/16 02:13:42;;;;;;;2.25;0.95;;;24.80;49.00;;;;;;5053752;28;20128;-48
2021/08/16 02:16:08;;;;;;;2.00;0.82;;;24.80;49.00;;;;;;5054411;28;20040;-47
2021/08/16 02:18:33;;;;;;;3.22;1.02;;;24.80;49.00;;;;;;5054337;28;20036;-49
2021/08/16 02:20:59;;;;;;;2.80;1.00;;;24.80;49.00;;;;;;5053575;28;20036;-47
2021/08/16 02:23:25;;;;;;;2.88;1.00;;;24.80;49.00;;;;;;5054041;28;20120;-48
2021/08/16 02:25:51;;;;;;;3.15;1.48;;;24.80;49.60;;;;;;5054080;28;20815;-48
2021/08/16 02:28:17;;;;;;;2.72;1.20;;;24.70;49.00;;;;;;5054168;28;20429;-50
2021/08/16 02:30:47;;;;;;;1.90;0.98;;;24.70;49.00;;;;;;5053939;28;20087;-49
2021/08/16 02:33:14;;;;;;;4.35;1.40;;;24.80;49.10;;;;;;5054250;28;20055;-50
2021/08/16 02:35:43;;;;;;;2.55;0.95;;;24.70;49.00;;;;;;5053803;28;20032;-48
2021/08/16 02:38:10;;;;;;;2.63;0.98;;;24.70;49.00;;;;;;5054404;28;20032;-49
2021/08/16 02:40:37;;;;;;;2.83;1.05;;;24.70;49.10;;;;;;5053408;28;20364;-49
2021/08/16 02:43:03;;;;;;;2.88;1.23;;;24.70;49.10;;;;;;5053927;28;21303;-51
2021/08/16 02:45:29;;;;;;;2.22;1.00;;;24.70;49.10;;;;;;5053757;28;20138;-47
2021/08/16 02:47:55;;;;;;;3.13;1.35;;;24.70;49.10;;;;;;5053915;28;20435;-50
2021/08/16 02:50:21;;;;;;;2.85;0.95;;;24.70;49.20;;;;;;5053643;28;20025;-50
2021/08/16 02:52:47;;;;;;;2.70;1.02;;;24.70;49.20;;;;;;5053648;28;20052;-52
2021/08/16 02:55:13;;;;;;;3.22;1.42;;;24.70;49.20;;;;;;5054295;28;20025;-49
2021/08/16 02:57:39;;;;;;;2.40;0.90;;;24.70;49.20;;;;;;5052695;28;20102;-53
2021/08/16 03:00:07;;;;;;;2.03;1.00;;;24.70;49.30;;;;;;5053115;28;20486;-52
2021/08/16 03:02:32;;;;;;;3.33;1.05;;;24.70;49.30;;;;;;5053559;28;20035;-52
2021/08/16 03:04:58;;;;;;;2.72;1.00;;;24.70;49.40;;;;;;5053668;28;20309;-49
2021/08/16 03:07:24;;;;;;;2.58;1.05;;;24.70;49.40;;;;;;5053372;28;20041;-48
2021/08/16 03:09:50;;;;;;;2.85;1.20;;;24.70;49.40;;;;;;5053796;28;20039;-47
2021/08/16 03:12:17;;;;;;;2.50;0.95;;;24.70;49.40;;;;;;5053837;28;20406;-50
2021/08/16 03:14:42;;;;;;;1.95;1.15;;;24.60;49.40;;;;;;5053433;28;20017;-53
2021/08/16 03:17:08;;;;;;;2.47;1.00;;;24.70;49.50;;;;;;5052901;28;20097;-52
2021/08/16 03:19:34;;;;;;;2.50;1.00;;;24.60;49.40;;;;;;5053619;28;20341;-54
2021/08/16 03:22:00;;;;;;;3.38;1.02;;;24.70;49.50;;;;;;5053901;28;20466;-50
2021/08/16 03:24:26;;;;;;;2.42;1.30;;;24.70;49.60;;;;;;5053757;28;20150;-53
2021/08/16 03:26:52;;;;;;;2.22;0.80;;;24.70;49.60;;;;;;5055542;28;20037;-51
2021/08/16 03:29:18;;;;;;;2.38;1.15;;;24.60;49.60;;;;;;5057657;28;20112;-46
2021/08/16 03:31:44;;;;;;;1.85;0.98;;;24.60;49.60;;;;;;5056054;28;20032;-50
2021/08/16 03:34:11;;;;;;;2.15;0.90;;;24.70;49.70;;;;;;5057644;28;20052;-50
2021/08/16 03:36:37;;;;;;;2.88;1.10;;;24.60;49.70;;;;;;5056798;28;20508;-52
2021/08/16 03:39:03;;;;;;;2.85;1.13;;;24.60;49.70;;;;;;5037716;28;20112;-50
2021/08/16 03:41:29;;;;;;;2.63;1.10;;;24.60;49.70;;;;;;5046134;28;20033;-49
2021/08/16 03:43:55;;;;;;;1.80;0.80;;;24.60;49.70;;;;;;5055515;28;20098;-46
2021/08/16 03:46:21;;;;;;;3.25;1.33;;;24.60;49.80;;;;;;5056268;28;20020;-45
2021/08/16 03:48:47;;;;;;;3.30;1.25;;;24.60;49.90;;;;;;5057318;28;20041;-52
2021/08/16 03:51:13;;;;;;;3.80;0.90;;;24.60;49.90;;;;;;5056340;28;20352;-46
2021/08/16 03:53:39;;;;;;;2.83;0.90;;;24.60;50.00;;;;;;5057391;28;20426;-47
2021/08/16 03:56:06;;;;;;;1.98;0.90;;;24.60;50.00;;;;;;5056457;28;20421;-52
2021/08/16 03:58:32;;;;;;;3.40;0.93;;;24.60;50.00;;;;;;5056194;28;20021;-55
2021/08/16 04:00:58;;;;;;;1.75;0.90;;;24.60;50.10;;;;;;5056128;28;20056;-49
2021/08/16 04:03:24;;;;;;;3.85;1.20;;;24.60;50.10;;;;;;5057073;28;20025;-49
2021/08/16 04:05:50;;;;;;;2.97;0.90;;;24.60;50.10;;;;;;5056535;28;20391;-49
2021/08/16 04:08:15;;;;;;;1.17;0.60;;;24.60;50.20;;;;;;5055872;28;20032;-48
2021/08/16 04:10:41;;;;;;;2.08;1.08;;;24.60;50.20;;;;;;5055902;28;20112;-51
2021/08/16 04:13:07;;;;;;;2.70;0.93;;;24.60;50.20;;;;;;5056924;28;20071;-51
2021/08/16 04:15:33;;;;;;;2.03;0.85;;;24.60;50.30;;;;;;5055881;28;20040;-51
2021/08/16 04:17:58;;;;;;;2.83;1.10;;;24.60;50.30;;;;;;5056995;28;20383;-53
2021/08/16 04:20:24;;;;;;;2.42;0.75;;;24.60;50.30;;;;;;5055821;28;20021;-55
2021/08/16 04:22:50;;;;;;;3.33;0.90;;;24.60;50.30;;;;;;5056409;28;20028;-49
2021/08/16 04:25:18;;;;;;;4.10;1.00;;;24.60;50.40;;;;;;5056412;28;20044;-51
2021/08/16 04:27:44;;;;;;;2.97;1.13;;;24.60;50.40;;;;;;5056361;28;20036;-48
2021/08/16 04:30:11;;;;;;;3.17;0.70;;;24.60;50.40;;;;;;5055671;28;20124;-48
2021/08/16 04:32:37;;;;;;;2.30;0.85;;;24.60;50.50;;;;;;5055077;28;20403;-51
2021/08/16 04:35:04;;;;;;;2.55;0.80;;;24.60;50.50;;;;;;5055924;28;20108;-52
2021/08/16 04:37:36;;;;;;;1.50;0.70;;;24.60;50.50;;;;;;5056038;28;20029;-56
2021/08/16 04:40:03;;;;;;;1.63;0.70;;;24.60;50.50;;;;;;5055731;28;20108;-56
2021/08/16 04:42:29;;;;;;;3.28;1.10;;;24.60;50.60;;;;;;5056203;28;20033;-56
2021/08/16 04:44:54;;;;;;;3.17;0.98;;;24.60;50.60;;;;;;5055199;28;20538;-53
2021/08/16 04:47:20;;;;;;;2.60;1.00;;;24.60;50.60;;;;;;5056111;28;20436;-49
2021/08/16 04:49:46;;;;;;;1.83;0.80;;;24.60;50.60;;;;;;5051104;28;20033;-56
2021/08/16 04:52:12;;;;;;;3.03;1.08;;;24.60;50.60;;;;;;5056125;28;20029;-54
2021/08/16 04:54:37;;;;;;;2.72;1.00;;;24.50;50.60;;;;;;5055523;28;20036;-48
2021/08/16 04:57:03;;;;;;;1.83;0.90;;;24.60;50.60;;;;;;5056399;28;20064;-51
2021/08/16 04:59:29;;;;;;;2.85;0.95;;;24.60;50.60;;;;;;5055302;28;20037;-47
2021/08/16 05:01:55;;;;;;;1.27;0.68;;;24.50;50.60;;;;;;5054956;28;20448;-49
2021/08/16 05:04:21;;;;;;;2.60;0.90;;;24.60;50.70;;;;;;5055892;28;20341;-50
2021/08/16 05:06:46;;;;;;;1.73;0.80;;;24.50;50.60;;;;;;5055599;28;20029;-48
2021/08/16 05:09:12;;;;;;;1.70;1.05;;;24.50;50.60;;;;;;5055512;28;20029;-52
2021/08/16 05:11:38;;;;;;;2.25;1.10;;;24.50;50.70;;;;;;5053790;28;20441;-50
2021/08/16 05:14:04;;;;;;;2.10;0.77;;;24.50;50.70;;;;;;5055403;28;20033;-50
2021/08/16 05:16:30;;;;;;;3.00;1.10;;;24.50;50.70;;;;;;5055413;28;20036;-44
2021/08/16 05:18:56;;;;;;;3.08;1.15;;;24.50;50.70;;;;;;5055438;28;20032;-54
2021/08/16 05:21:23;;;;;;;2.05;0.70;;;24.50;50.80;;;;;;5055290;28;20029;-50
2021/08/16 05:23:49;;;;;;;1.67;0.80;;;24.50;50.80;;;;;;5053316;28;20044;-51
2021/08/16 05:26:15;;;;;;;2.50;0.80;;;24.50;50.80;;;;;;5055022;28;20403;-49
2021/08/16 05:28:41;;;;;;;2.83;0.90;;;24.50;50.80;;;;;;5054608;28;20086;-49
2021/08/16 05:31:07;;;;;;;2.42;0.80;;;24.50;50.80;;;;;;5054641;28;20021;-48
2021/08/16 05:33:32;;;;;;;2.05;0.77;;;24.50;50.90;;;;;;5055149;28;20039;-51
2021/08/16 05:35:59;;;;;;;2.63;1.00;;;24.50;50.90;;;;;;5055480;28;20033;-50
2021/08/16 05:38:25;;;;;;;1.27;0.73;;;24.50;50.90;;;;;;5054959;28;20029;-52
2021/08/16 05:40:50;;;;;;;2.97;0.90;;;24.50;50.90;;;;;;5054564;28;20029;-51
2021/08/16 05:43:16;;;;;;;2.20;0.90;;;24.50;50.90;;;;;;5055003;28;20052;-47
2021/08/16 05:45:42;;;;;;;2.55;1.08;;;24.50;50.90;;;;;;5054601;28;20437;-50
2021/08/16 05:48:08;;;;;;;1.70;0.80;;;24.50;51.60;;;;;;5053736;28;20502;-47
2021/08/16 05:50:34;;;;;;;3.15;0.77;;;24.50;50.90;;;;;;5054214;28;20032;-53
2021/08/16 05:53:00;;;;;;;4.95;1.20;;;24.50;51.60;;;;;;5054408;28;20441;-48
2021/08/16 05:55:26;;;;;;;2.60;1.05;;;24.50;51.00;;;;;;5054612;28;20036;-51
2021/08/16 05:57:51;;;;;;;3.58;0.90;;;24.50;51.10;;;;;;5054170;28;20029;-53
2021/08/16 06:00:19;;;;;;;2.72;1.02;;;24.40;51.00;;;;;;5054797;28;20025;-51
2021/08/16 06:02:45;;;;;;;1.77;0.80;;;24.40;51.00;;;;;;5054998;28;20337;-48
2021/08/16 06:05:11;;;;;;;2.53;0.93;;;24.50;51.10;;;;;;5054095;28;20044;-50
2021/08/16 06:07:37;;;;;;;2.70;1.00;;;24.40;51.10;;;;;;5054791;28;20047;-50
2021/08/16 06:10:04;;;;;;;3.13;1.00;;;24.50;51.10;;;;;;5053684;28;20124;-48
2021/08/16 06:12:30;;;;;;;2.05;0.93;;;24.50;51.20;;;;;;5054379;28;20384;-53
2021/08/16 06:14:56;;;;;;;2.97;0.90;;;24.50;51.20;;;;;;5053439;28;20102;-53
2021/08/16 06:17:22;;;;;;;2.08;0.75;;;24.50;51.20;;;;;;5054417;28;20115;-44
2021/08/16 06:19:47;;;;;;;3.28;1.20;;;24.50;51.20;;;;;;5053599;28;20029;-50
2021/08/16 06:22:13;;;;;;;1.88;0.98;;;24.40;51.20;;;;;;5054297;28;20132;-52
2021/08/16 06:24:39;;;;;;;2.30;1.05;;;24.50;51.40;;;;;;5052122;28;20068;-44
2021/08/16 06:27:05;;;;;;;3.03;1.10;;;24.50;51.30;;;;;;5052054;28;20028;-47
2021/08/16 06:29:32;;;;;;;2.83;1.13;;;24.50;51.40;;;;;;5048213;28;20026;-45
2021/08/16 06:31:58;;;;;;;2.83;1.23;;;24.40;51.40;;;;;;5043321;28;20032;-50
2021/08/16 06:34:24;;;;;;;2.30;1.17;;;24.50;52.10;;;;;;5051664;28;20411;-44
2021/08/16 06:36:55;;;;;;;2.05;1.08;;;24.40;51.50;;;;;;5053131;28;20032;-51
2021/08/16 06:39:22;;;;;;;2.63;1.13;;;24.50;51.50;;;;;;5050684;28;20393;-48
2021/08/16 06:41:49;;;;;;;2.42;1.10;;;24.50;51.60;;;;;;5052586;28;20111;-51
2021/08/16 06:44:19;;;;;;;2.33;1.25;;;24.50;51.70;;;;;;5052980;28;20128;-54
2021/08/16 06:46:46;;;;;;;3.78;1.42;;;24.50;51.70;;;;;;5053703;28;20094;-56
2021/08/16 06:49:11;;;;;;;2.75;1.05;;;24.50;51.80;;;;;;5053594;28;20416;-54
2021/08/16 06:51:38;;;;;;;2.90;1.30;;;24.50;51.90;;;;;;5053248;28;20064;-50
2021/08/16 06:54:03;;;;;;;4.35;1.60;;;24.50;52.00;;;;;;5054106;28;20068;-50
2021/08/16 06:56:29;;;;;;;3.92;1.30;;;24.50;52.10;;;;;;5052830;28;20061;-52
2021/08/16 06:58:55;;;;;;;4.25;1.60;;;24.50;52.20;;;;;;5053082;28;20029;-52
2021/08/16 07:01:25;;;;;;;3.88;1.70;;;24.50;52.30;;;;;;5056708;28;20103;-52
2021/08/16 07:03:52;;;;;;;3.50;1.40;;;24.50;52.40;;;;;;5056575;28;20049;-51
2021/08/16 07:06:18;;;;;;;2.78;1.30;;;24.40;52.40;;;;;;5058269;28;20036;-55
2021/08/16 07:08:44;;;;;;;3.03;1.40;;;24.50;52.60;;;;;;5057647;28;20078;-52
2021/08/16 07:11:11;;;;;;;3.47;1.17;;;24.50;52.60;;;;;;5057716;28;20036;-48
2021/08/16 07:13:37;;;;;;;3.65;1.60;;;24.50;52.70;;;;;;5056316;28;20407;-52
2021/08/16 07:16:03;;;;;;;2.75;1.13;;;24.50;52.80;;;;;;5057904;28;20099;-54
2021/08/16 07:18:29;;;;;;;3.80;1.25;;;24.50;52.80;;;;;;5057316;28;20032;-57
2021/08/16 07:20:54;;;;;;;3.15;1.30;;;24.50;52.80;;;;;;5057008;28;20033;-52
2021/08/16 07:23:21;;;;;;;2.20;1.30;;;24.50;52.90;;;;;;5057453;28;20036;-52
2021/08/16 07:25:47;;;;;;;5.72;1.50;;;24.50;52.90;;;;;;5057558;28;20024;-57
2021/08/16 07:28:13;;;;;;;1.42;0.80;;;24.50;53.00;;;;;;5057641;28;20118;-53
2021/08/16 07:30:39;;;;;;;2.90;1.30;;;24.50;53.00;;;;;;5057279;28;20432;-52
2021/08/16 07:33:05;;;;;;;1.83;0.90;;;24.50;53.70;;;;;;5056134;28;21793;-50
2021/08/16 07:35:31;;;;;;;2.78;1.15;;;24.50;53.10;;;;;;5057357;28;20112;-57
2021/08/16 07:37:57;;;;;;;2.15;1.05;;;24.50;53.20;;;;;;5056765;28;20032;-52
2021/08/16 07:40:24;;;;;;;1.23;0.77;;;24.50;53.20;;;;;;5057407;28;20040;-53
2021/08/16 07:42:50;;;;;;;1.88;1.05;;;24.50;53.30;;;;;;5056613;28;20123;-49
2021/08/16 07:45:16;;;;;;;1.73;1.00;;;24.50;53.30;;;;;;5056828;28;20120;-52
2021/08/16 07:47:43;;;;;;;1.88;0.90;;;24.50;53.30;;;;;;5057612;28;20120;-59
2021/08/16 07:50:12;;;;;;;1.92;1.00;;;24.50;53.30;;;;;;5056987;28;20056;-53
2021/08/16 07:52:40;;;;;;;1.70;0.80;;;24.50;53.40;;;;;;5054949;28;20047;-51
2021/08/16 07:55:07;;;;;;;1.35;0.73;;;24.40;53.30;;;;;;5056797;28;20047;-52
2021/08/16 07:57:33;;;;;;;0.93;0.60;;;24.50;53.40;;;;;;5056708;28;20186;-54
2021/08/16 08:00:00;;;;;;;1.42;0.80;;;24.50;53.30;;;;;;5052129;28;20444;-51
2021/08/16 08:02:26;;;;;;;2.38;0.80;;;24.50;53.30;;;;;;5054299;28;20463;-50
2021/08/16 08:04:52;;;;;;;1.75;0.75;;;24.50;53.30;;;;;;5046781;28;20509;-49
2021/08/16 08:07:18;;;;;;;1.60;0.60;;;24.50;53.30;;;;;;5054526;28;20480;-52
2021/08/16 08:09:44;;;;;;;1.13;0.68;;;24.50;53.30;;;;;;5056530;28;20063;-55
2021/08/16 08:12:10;;;;;;;1.33;0.80;;;24.50;53.20;;;;;;5053431;28;20020;-51
2021/08/16 08:14:36;;;;;;;1.17;0.70;;;24.50;53.20;;;;;;5056387;28;20470;-50
2021/08/16 08:17:01;;;;;;;1.33;0.60;;;24.50;53.20;;;;;;5056485;28;20098;-48
2021/08/16 08:19:27;;;;;;;1.70;0.70;;;24.50;53.20;;;;;;5056164;28;20049;-52
2021/08/16 08:21:53;;;;;;;1.75;0.80;;;24.40;53.10;;;;;;5056396;28;20033;-54
2021/08/16 08:24:19;;;;;;;1.42;0.52;;;24.40;53.10;;;;;;5055756;28;20049;-49
2021/08/16 08:26:45;;;;;;;0.70;0.50;;;24.40;53.00;;;;;;5056342;28;20025;-52
2021/08/16 08:29:10;;;;;;;0.60;0.50;;;24.40;53.00;;;;;;5056486;28;20440;-53
2021/08/16 08:31:41;;;;;;;1.77;0.85;;;24.40;52.90;;;;;;5056634;28;20388;-52
2021/08/16 08:34:07;;;;;;;0.95;0.43;;;24.40;52.80;;;;;;5056725;28;20175;-50
2021/08/16 08:36:33;;;;;;;1.10;0.55;;;24.40;52.70;;;;;;5056243;28;20159;-56
2021/08/16 08:38:59;;;;;;;1.73;0.70;;;24.40;52.60;;;;;;5087099;28;20025;-55
2021/08/16 08:41:29;;;;;;;1.08;0.57;;;24.50;52.60;;;;;;5055491;28;20123;-48
2021/08/16 08:43:56;;;;;;;1.13;0.68;;;24.50;52.40;;;;;;5061957;28;20083;-51
2021/08/16 08:46:22;;;;;;;1.00;0.70;;;24.40;52.30;;;;;;5055341;28;20017;-48
2021/08/16 08:48:48;;;;;;;0.82;0.50;;;24.50;52.20;;;;;;5055966;28;20039;-46
2021/08/16 08:51:14;;;;;;;0.55;0.50;;;24.50;52.10;;;;;;5055887;28;20029;-56
2021/08/16 08:53:40;;;;;;;1.45;0.60;;;24.50;52.10;;;;;;5055514;28;20362;-49
2021/08/16 08:56:06;;;;;;;0.68;0.50;;;24.50;52.00;;;;;;5056072;28;20021;-56
2021/08/16 08:58:32;;;;;;;1.50;0.73;;;24.50;51.90;;;;;;5055018;28;20040;-53
2021/08/16 09:00:59;;;;;;;1.63;0.70;;;24.50;51.90;;;;;;5053113;28;20033;-49
2021/08/16 09:03:25;;;;;;;0.90;0.70;;;24.50;51.80;;;;;;5054753;28;20021;-50
2021/08/16 09:05:54;;;;;;;1.10;0.70;;;24.50;51.80;;;;;;5055313;28;20104;-49
2021/08/16 09:08:32;;;;;;;1.13;0.60;;;24.50;51.80;;;;;;5054202;28;20119;-54
2021/08/16 09:11:16;;;;;;;1.23;0.73;;;24.50;51.70;;;;;;5055651;28;20120;-52
2021/08/16 09:13:49;;;;;;;0.47;0.43;;;24.50;52.30;;;;;;5055355;28;20098;-55
2021/08/16 09:16:16;;;;;;;0.98;0.60;;;24.50;51.70;;;;;;5053861;28;20267;-54
2021/08/16 09:18:41;;;;;;;1.10;0.60;;;24.50;51.70;;;;;;5054075;28;20024;-52
2021/08/16 09:21:08;;;;;;;0.60;0.50;;;24.50;51.80;;;;;;5055597;28;20086;-49
2021/08/16 09:23:44;;;;;;;1.83;0.77;;;24.50;51.90;;;;;;5053617;28;20044;-48
2021/08/16 09:26:11;;;;;;;0.93;0.65;;;24.50;51.90;;;;;;5055333;28;20039;-53
2021/08/16 09:28:40;;;;;;;1.38;0.60;;;24.60;52.00;;;;;;5054331;28;20048;-48
2021/08/16 09:31:16;;;;;;;1.33;0.60;;;24.60;52.00;;;;;;5054273;28;20024;-47
2021/08/16 09:34:01;;;;;;;1.83;0.82;;;24.60;52.00;;;;;;5054600;28;20033;-48
2021/08/16 09:36:37;;;;;;;1.48;0.60;;;24.60;51.90;;;;;;5055084;28;20033;-49
2021/08/16 09:39:20;;;;;;;1.48;0.60;;;24.60;51.90;;;;;;5054847;28;20044;-48
2021/08/16 09:41:46;;;;;;;1.13;0.80;;;24.60;51.80;;;;;;5054684;28;20053;-49
2021/08/16 09:44:13;;;;;;;2.28;0.68;;;24.60;51.80;;;;;;5053352;28;20070;-51
